Aérodrome :
LOGIN :

S'inscrire | Disclaimer

   EN    FR    IT 

 










Légende :    VFR   VFR Marginal   IFR   IFR Intensif   IFR Très Intensif
Visi : 
Plafond : 
>= 8 km
>= 3000ft
5 à 8 km
1000 à 3000 ft
1500m à 5 km
500 à 1000 ft
800 à 1500m
200 à 500 ft
< 800m
< 200 ft
Symboles :   Orages  Brouillard  Fortes neiges  Fortes précipitations  Vent > 20 kt
SIGMETs :   Divers  Orages  Givrage  Turbulence  Onde Orograph.  Cendres Volcan.






- Altitude de l'aérodrome : 512 ft
- Code IATA : URO


LFOP - Rouen Vallée de Seine

DERNIER METAR :
  • 101130Z AUTO 05005KT 020V080 3100 RA BR OVC003/// ///CB 07/07 Q1008 TEMPO 2000

METARs EXPIRÉS :
  • 101100Z AUTO 10007KT 4000 -RA BR OVC003/// ///TCU 07/07 Q1008 TEMPO 2000 OVC006 BKN030CB
  • 101030Z AUTO 11008KT 2700 -RA BR OVC003/// ///CB 07/06 Q1009 TEMPO RA
  • 101000Z AUTO 10008KT 2000 RA BR OVC003/// ///TCU 07/06 Q1009 TEMPO OVC006 BKN030CB
  • 100930Z AUTO 08008KT 2400 -DZ BR OVC004/// ///TCU 06/06 Q1009 TEMPO RA OVC006 BKN030CB
  • 100900Z AUTO 07008KT 2700 -RA BR OVC004/// ///TCU 06/06 Q1010 TEMPO RA OVC006 BKN030CB

TAF TAF LFOP
Valide du 10 à 12h jusqu'au 11 à 12h UTC


101100Z 1012/1112 07010KT 8000 OVC030
TEMPO 1012/1104 4000 RA OVC006 BKN030CB
PROB40
TEMPO 1012/1104 2000 OVC002
BECMG 1012/1015 01007KT
PROB30
TEMPO 1104/1107 1500 SNRA OVC005
TEMPO 1108/1112 01015G25KT
ATIS : +33 2 35 80 80 34
Météo : +33 2 32 86 52 80



MET'MAP, la Météo Aéronautique d'un coup d'oeil ! - Copyright ORBIFLY Décembre 2007 - Disclaimer

ORBIFLY MET'MAP TEAM :

Programmation & Développement : Alexandra Zaïnal
Sur une idée originale de : Baudouin d'Aumeries
Assistance à la programmation : Marc-Olivier Méhu
Soutien technique & logistique : Manuel Goepfert

Contact : metmap@orbifly.com




SOURCES & CREDITS :

   NOAA